sensor_id;sensor_type;location;lat;lon;timestamp;pressure;altitude;pressure_sealevel;temperature;humidity
32033;BME280;31720;52.638;9.216;2023-04-24T00:02:39;99744.06;;;12.26;100.00
32033;BME280;31720;52.638;9.216;2023-04-24T00:05:40;99741.56;;;12.24;100.00
32033;BME280;31720;52.638;9.216;2023-04-24T00:08:42;99742.97;;;12.17;100.00
32033;BME280;31720;52.638;9.216;2023-04-24T00:11:45;99736.88;;;12.16;100.00
32033;BME280;31720;52.638;9.216;2023-04-24T00:14:46;99731.72;;;12.15;100.00
32033;BME280;31720;52.638;9.216;2023-04-24T00:17:48;99740.09;;;12.09;100.00
32033;BME280;31720;52.638;9.216;2023-04-24T00:20:49;99732.19;;;12.09;100.00
32033;BME280;31720;52.638;9.216;2023-04-24T00:23:51;99736.72;;;12.07;100.00
32033;BME280;31720;52.638;9.216;2023-04-24T00:26:53;99739.00;;;12.00;100.00
32033;BME280;31720;52.638;9.216;2023-04-24T00:29:55;99743.53;;;11.98;100.00
32033;BME280;31720;52.638;9.216;2023-04-24T00:32:56;99744.56;;;11.84;100.00
32033;BME280;31720;52.638;9.216;2023-04-24T00:35:58;99743.38;;;11.88;100.00
32033;BME280;31720;52.638;9.216;2023-04-24T00:38:59;99738.59;;;11.93;100.00
32033;BME280;31720;52.638;9.216;2023-04-24T00:42:02;99741.72;;;11.99;100.00
32033;BME280;31720;52.638;9.216;2023-04-24T00:45:07;99743.44;;;12.00;100.00
32033;BME280;31720;52.638;9.216;2023-04-24T00:48:08;99737.69;;;11.95;100.00
32033;BME280;31720;52.638;9.216;2023-04-24T00:51:10;99728.06;;;11.82;100.00
32033;BME280;31720;52.638;9.216;2023-04-24T00:54:11;99733.06;;;11.85;100.00
32033;BME280;31720;52.638;9.216;2023-04-24T00:57:14;99724.13;;;11.88;100.00
32033;BME280;31720;52.638;9.216;2023-04-24T01:00:16;99723.06;;;11.90;100.00
32033;BME280;31720;52.638;9.216;2023-04-24T01:03:17;99724.59;;;11.93;100.00
32033;BME280;31720;52.638;9.216;2023-04-24T01:06:20;99729.50;;;11.86;100.00
32033;BME280;31720;52.638;9.216;2023-04-24T01:09:23;99726.13;;;11.84;100.00
32033;BME280;31720;52.638;9.216;2023-04-24T01:12:25;99729.25;;;11.89;100.00
32033;BME280;31720;52.638;9.216;2023-04-24T01:15:27;99729.59;;;11.85;100.00
32033;BME280;31720;52.638;9.216;2023-04-24T01:18:28;99726.06;;;11.73;100.00
32033;BME280;31720;52.638;9.216;2023-04-24T01:21:30;99722.50;;;11.74;100.00
32033;BME280;31720;52.638;9.216;2023-04-24T01:24:34;99723.44;;;11.73;100.00
32033;BME280;31720;52.638;9.216;2023-04-24T01:27:36;99729.66;;;11.72;100.00
32033;BME280;31720;52.638;9.216;2023-04-24T01:30:37;99724.75;;;11.67;100.00
32033;BME280;31720;52.638;9.216;2023-04-24T01:33:40;99725.81;;;11.65;100.00
32033;BME280;31720;52.638;9.216;2023-04-24T01:36:43;99731.78;;;11.67;100.00
32033;BME280;31720;52.638;9.216;2023-04-24T01:39:48;99739.63;;;11.56;100.00
32033;BME280;31720;52.638;9.216;2023-04-24T01:42:49;99737.28;;;11.64;100.00
32033;BME280;31720;52.638;9.216;2023-04-24T01:45:51;99732.75;;;11.66;100.00
32033;BME280;31720;52.638;9.216;2023-04-24T01:48:53;99732.13;;;11.62;100.00
32033;BME280;31720;52.638;9.216;2023-04-24T01:51:54;99730.94;;;11.66;100.00
32033;BME280;31720;52.638;9.216;2023-04-24T01:54:59;99726.34;;;11.57;100.00
32033;BME280;31720;52.638;9.216;2023-04-24T01:58:01;99716.28;;;11.51;100.00
32033;BME280;31720;52.638;9.216;2023-04-24T02:01:02;99722.19;;;11.55;100.00
32033;BME280;31720;52.638;9.216;2023-04-24T02:04:04;99721.44;;;11.53;100.00
32033;BME280;31720;52.638;9.216;2023-04-24T02:07:06;99730.84;;;11.44;100.00
32033;BME280;31720;52.638;9.216;2023-04-24T02:10:10;99730.28;;;11.52;100.00
32033;BME280;31720;52.638;9.216;2023-04-24T02:13:11;99722.28;;;11.53;100.00
32033;BME280;31720;52.638;9.216;2023-04-24T02:16:12;99722.19;;;11.55;100.00
32033;BME280;31720;52.638;9.216;2023-04-24T02:19:14;99728.00;;;11.47;100.00
32033;BME280;31720;52.638;9.216;2023-04-24T02:22:15;99715.31;;;11.41;100.00
32033;BME280;31720;52.638;9.216;2023-04-24T02:25:18;99722.56;;;11.37;100.00
32033;BME280;31720;52.638;9.216;2023-04-24T02:28:20;99719.19;;;11.35;100.00
32033;BME280;31720;52.638;9.216;2023-04-24T02:31:21;99715.50;;;11.38;100.00
32033;BME280;31720;52.638;9.216;2023-04-24T02:34:22;99721.00;;;11.35;100.00
32033;BME280;31720;52.638;9.216;2023-04-24T02:37:24;99726.38;;;11.33;100.00
32033;BME280;31720;52.638;9.216;2023-04-24T02:40:27;99726.59;;;11.30;100.00
32033;BME280;31720;52.638;9.216;2023-04-24T02:43:28;99723.25;;;11.28;100.00
32033;BME280;31720;52.638;9.216;2023-04-24T02:46:29;99721.91;;;11.23;100.00
32033;BME280;31720;52.638;9.216;2023-04-24T02:49:31;99725.69;;;11.18;100.00
32033;BME280;31720;52.638;9.216;2023-04-24T02:52:32;99723.91;;;11.19;100.00
32033;BME280;31720;52.638;9.216;2023-04-24T02:55:35;99719.50;;;11.20;100.00
32033;BME280;31720;52.638;9.216;2023-04-24T02:58:36;99728.34;;;11.18;100.00
32033;BME280;31720;52.638;9.216;2023-04-24T03:01:38;99716.22;;;11.16;100.00
32033;BME280;31720;52.638;9.216;2023-04-24T03:04:39;99711.31;;;11.11;100.00
32033;BME280;31720;52.638;9.216;2023-04-24T03:07:42;99713.31;;;11.08;100.00
32033;BME280;31720;52.638;9.216;2023-04-24T03:10:45;99715.84;;;11.09;100.00
32033;BME280;31720;52.638;9.216;2023-04-24T03:13:47;99710.69;;;11.08;100.00
32033;BME280;31720;52.638;9.216;2023-04-24T03:16:48;99721.44;;;11.05;100.00
32033;BME280;31720;52.638;9.216;2023-04-24T03:19:50;99715.88;;;10.97;100.00
32033;BME280;31720;52.638;9.216;2023-04-24T03:22:51;99714.53;;;10.91;100.00
32033;BME280;31720;52.638;9.216;2023-04-24T03:25:54;99715.59;;;10.76;100.00
32033;BME280;31720;52.638;9.216;2023-04-24T03:28:55;99714.88;;;10.74;100.00
32033;BME280;31720;52.638;9.216;2023-04-24T03:31:57;99711.44;;;10.73;100.00
32033;BME280;31720;52.638;9.216;2023-04-24T03:34:58;99715.41;;;10.66;100.00
32033;BME280;31720;52.638;9.216;2023-04-24T03:38:00;99711.00;;;10.66;100.00
32033;BME280;31720;52.638;9.216;2023-04-24T03:41:03;99708.81;;;10.60;100.00
32033;BME280;31720;52.638;9.216;2023-04-24T03:44:04;99714.69;;;10.64;100.00
32033;BME280;31720;52.638;9.216;2023-04-24T03:47:06;99714.38;;;10.69;100.00
32033;BME280;31720;52.638;9.216;2023-04-24T03:50:08;99711.13;;;10.65;100.00
32033;BME280;31720;52.638;9.216;2023-04-24T03:53:09;99715.41;;;10.66;100.00
32033;BME280;31720;52.638;9.216;2023-04-24T03:56:12;99706.94;;;10.50;100.00
32033;BME280;31720;52.638;9.216;2023-04-24T03:59:13;99708.63;;;10.51;100.00
32033;BME280;31720;52.638;9.216;2023-04-24T04:02:15;99719.44;;;10.46;100.00
32033;BME280;31720;52.638;9.216;2023-04-24T04:05:16;99713.44;;;10.44;100.00
32033;BME280;31720;52.638;9.216;2023-04-24T04:08:18;99719.25;;;10.49;100.00
32033;BME280;31720;52.638;9.216;2023-04-24T04:11:20;99714.50;;;10.54;100.00
32033;BME280;31720;52.638;9.216;2023-04-24T04:14:22;99709.78;;;10.59;100.00
32033;BME280;31720;52.638;9.216;2023-04-24T04:17:23;99714.38;;;10.56;100.00
32033;BME280;31720;52.638;9.216;2023-04-24T04:20:25;99710.72;;;10.58;100.00
32033;BME280;31720;52.638;9.216;2023-04-24T04:23:26;99704.41;;;10.61;100.00
32033;BME280;31720;52.638;9.216;2023-04-24T04:26:29;99701.88;;;10.59;100.00
32033;BME280;31720;52.638;9.216;2023-04-24T04:29:32;99709.13;;;10.56;100.00
32033;BME280;31720;52.638;9.216;2023-04-24T04:32:34;99711.56;;;10.46;100.00
32033;BME280;31720;52.638;9.216;2023-04-24T04:35:36;99713.22;;;10.60;100.00
32033;BME280;31720;52.638;9.216;2023-04-24T04:38:37;99721.44;;;10.55;100.00
32033;BME280;31720;52.638;9.216;2023-04-24T04:41:42;99725.53;;;10.59;100.00
32033;BME280;31720;52.638;9.216;2023-04-24T04:44:44;99722.38;;;10.54;100.00
32033;BME280;31720;52.638;9.216;2023-04-24T04:47:46;99727.59;;;10.67;100.00
32033;BME280;31720;52.638;9.216;2023-04-24T04:50:47;99720.03;;;10.75;100.00
32033;BME280;31720;52.638;9.216;2023-04-24T04:53:49;99721.63;;;10.78;100.00
32033;BME280;31720;52.638;9.216;2023-04-24T04:56:51;99716.53;;;10.87;100.00
32033;BME280;31720;52.638;9.216;2023-04-24T04:59:53;99721.03;;;10.85;100.00
32033;BME280;31720;52.638;9.216;2023-04-24T05:02:55;99713.41;;;10.82;100.00
32033;BME280;31720;52.638;9.216;2023-04-24T05:05:57;99713.59;;;10.79;100.00
32033;BME280;31720;52.638;9.216;2023-04-24T05:08:58;99704.16;;;10.77;100.00
32033;BME280;31720;52.638;9.216;2023-04-24T05:12:01;99717.06;;;10.80;100.00
32033;BME280;31720;52.638;9.216;2023-04-24T05:15:03;99708.22;;;10.81;100.00
32033;BME280;31720;52.638;9.216;2023-04-24T05:18:05;99706.81;;;10.77;100.00
32033;BME280;31720;52.638;9.216;2023-04-24T05:21:06;99708.69;;;10.75;100.00
32033;BME280;31720;52.638;9.216;2023-04-24T05:24:08;99702.13;;;10.80;100.00
32033;BME280;31720;52.638;9.216;2023-04-24T05:27:11;99714.88;;;10.86;100.00
32033;BME280;31720;52.638;9.216;2023-04-24T05:30:12;99722.44;;;10.91;100.00
32033;BME280;31720;52.638;9.216;2023-04-24T05:33:14;99729.47;;;10.90;100.00
32033;BME280;31720;52.638;9.216;2023-04-24T05:36:15;99736.63;;;10.88;100.00
32033;BME280;31720;52.638;9.216;2023-04-24T05:39:17;99746.63;;;10.83;100.00
32033;BME280;31720;52.638;9.216;2023-04-24T05:42:21;99739.34;;;10.87;100.00
32033;BME280;31720;52.638;9.216;2023-04-24T05:45:22;99741.66;;;10.91;100.00
32033;BME280;31720;52.638;9.216;2023-04-24T05:48:23;99756.03;;;10.99;100.00
32033;BME280;31720;52.638;9.216;2023-04-24T05:51:25;99763.59;;;11.03;100.00
32033;BME280;31720;52.638;9.216;2023-04-24T05:54:27;99762.88;;;11.01;100.00
32033;BME280;31720;52.638;9.216;2023-04-24T05:57:29;99759.75;;;10.96;100.00
32033;BME280;31720;52.638;9.216;2023-04-24T06:00:31;99761.53;;;10.96;100.00
32033;BME280;31720;52.638;9.216;2023-04-24T06:03:32;99767.63;;;10.96;100.00
32033;BME280;31720;52.638;9.216;2023-04-24T06:06:34;99761.22;;;10.87;100.00
32033;BME280;31720;52.638;9.216;2023-04-24T06:09:36;99771.31;;;10.81;100.00
32033;BME280;31720;52.638;9.216;2023-04-24T06:12:39;99768.69;;;10.81;100.00
32033;BME280;31720;52.638;9.216;2023-04-24T06:15:40;99774.56;;;10.84;100.00
32033;BME280;31720;52.638;9.216;2023-04-24T06:18:42;99781.81;;;10.93;100.00
32033;BME280;31720;52.638;9.216;2023-04-24T06:21:43;99775.63;;;10.95;100.00
32033;BME280;31720;52.638;9.216;2023-04-24T06:24:45;99787.06;;;10.93;100.00
32033;BME280;31720;52.638;9.216;2023-04-24T06:27:48;99793.59;;;10.75;100.00
32033;BME280;31720;52.638;9.216;2023-04-24T06:30:50;99785.63;;;10.77;100.00
32033;BME280;31720;52.638;9.216;2023-04-24T06:33:51;99783.72;;;10.79;100.00
32033;BME280;31720;52.638;9.216;2023-04-24T06:36:53;99778.28;;;10.82;100.00
32033;BME280;31720;52.638;9.216;2023-04-24T06:39:55;99786.44;;;10.90;100.00
32033;BME280;31720;52.638;9.216;2023-04-24T06:42:57;99783.84;;;10.77;100.00
32033;BME280;31720;52.638;9.216;2023-04-24T06:46:00;99779.63;;;10.75;100.00
32033;BME280;31720;52.638;9.216;2023-04-24T06:49:03;99786.47;;;10.77;100.00
32033;BME280;31720;52.638;9.216;2023-04-24T06:52:05;99795.41;;;10.87;100.00
32033;BME280;31720;52.638;9.216;2023-04-24T06:55:07;99780.22;;;11.04;100.00
32033;BME280;31720;52.638;9.216;2023-04-24T06:58:10;99792.50;;;11.03;100.00
32033;BME280;31720;52.638;9.216;2023-04-24T07:01:11;99792.63;;;11.02;100.00
32033;BME280;31720;52.638;9.216;2023-04-24T07:04:13;99798.06;;;11.11;100.00
32033;BME280;31720;52.638;9.216;2023-04-24T07:07:15;99793.25;;;11.18;100.00
32033;BME280;31720;52.638;9.216;2023-04-24T07:10:17;99781.88;;;11.17;100.00
32033;BME280;31720;52.638;9.216;2023-04-24T07:13:19;99792.91;;;11.23;100.00
32033;BME280;31720;52.638;9.216;2023-04-24T07:16:21;99791.75;;;11.27;100.00
32033;BME280;31720;52.638;9.216;2023-04-24T07:19:22;99782.78;;;11.29;100.00
32033;BME280;31720;52.638;9.216;2023-04-24T07:22:24;99778.81;;;11.24;100.00
32033;BME280;31720;52.638;9.216;2023-04-24T07:25:25;99786.53;;;11.38;100.00
32033;BME280;31720;52.638;9.216;2023-04-24T07:28:28;99799.38;;;11.42;100.00
32033;BME280;31720;52.638;9.216;2023-04-24T07:31:31;99795.91;;;11.42;100.00
32033;BME280;31720;52.638;9.216;2023-04-24T07:34:32;99796.72;;;11.42;100.00
32033;BME280;31720;52.638;9.216;2023-04-24T07:37:34;99791.09;;;11.36;100.00
32033;BME280;31720;52.638;9.216;2023-04-24T07:40:35;99799.25;;;11.44;100.00
32033;BME280;31720;52.638;9.216;2023-04-24T07:43:38;99800.53;;;11.38;100.00
32033;BME280;31720;52.638;9.216;2023-04-24T07:46:39;99797.81;;;11.40;100.00
32033;BME280;31720;52.638;9.216;2023-04-24T07:49:41;99810.50;;;11.46;100.00
32033;BME280;31720;52.638;9.216;2023-04-24T07:52:42;99802.44;;;11.36;100.00
32033;BME280;31720;52.638;9.216;2023-04-24T07:55:44;99808.84;;;11.45;100.00
32033;BME280;31720;52.638;9.216;2023-04-24T07:58:46;99814.50;;;11.52;100.00
32033;BME280;31720;52.638;9.216;2023-04-24T08:01:48;99813.19;;;11.57;100.00
32033;BME280;31720;52.638;9.216;2023-04-24T08:04:50;99813.78;;;11.50;100.00
32033;BME280;31720;52.638;9.216;2023-04-24T08:07:51;99810.81;;;11.54;100.00
32033;BME280;31720;52.638;9.216;2023-04-24T08:10:53;99812.66;;;11.65;100.00
32033;BME280;31720;52.638;9.216;2023-04-24T08:13:56;99822.00;;;11.69;100.00
32033;BME280;31720;52.638;9.216;2023-04-24T08:16:57;99816.94;;;11.66;100.00
32033;BME280;31720;52.638;9.216;2023-04-24T08:20:00;99821.50;;;11.64;100.00
32033;BME280;31720;52.638;9.216;2023-04-24T08:23:02;99831.91;;;11.65;100.00
32033;BME280;31720;52.638;9.216;2023-04-24T08:26:03;99830.41;;;11.74;100.00
32033;BME280;31720;52.638;9.216;2023-04-24T08:29:09;99829.06;;;11.68;100.00
32033;BME280;31720;52.638;9.216;2023-04-24T08:32:10;99839.59;;;11.68;100.00
32033;BME280;31720;52.638;9.216;2023-04-24T08:35:11;99837.03;;;11.67;100.00
32033;BME280;31720;52.638;9.216;2023-04-24T08:38:13;99840.22;;;11.72;100.00
32033;BME280;31720;52.638;9.216;2023-04-24T08:41:14;99845.47;;;11.72;100.00
32033;BME280;31720;52.638;9.216;2023-04-24T08:44:19;99841.16;;;11.71;100.00
32033;BME280;31720;52.638;9.216;2023-04-24T08:47:22;99844.53;;;11.73;100.00
32033;BME280;31720;52.638;9.216;2023-04-24T08:50:25;99848.38;;;11.80;100.00
32033;BME280;31720;52.638;9.216;2023-04-24T08:53:26;99834.41;;;11.67;100.00
32033;BME280;31720;52.638;9.216;2023-04-24T08:56:28;99843.56;;;11.74;100.00
32033;BME280;31720;52.638;9.216;2023-04-24T08:59:35;99839.13;;;11.87;100.00
32033;BME280;31720;52.638;9.216;2023-04-24T09:02:37;99841.78;;;11.99;100.00
32033;BME280;31720;52.638;9.216;2023-04-24T09:05:40;99841.91;;;11.97;100.00
32033;BME280;31720;52.638;9.216;2023-04-24T09:08:47;99835.09;;;11.95;100.00
32033;BME280;31720;52.638;9.216;2023-04-24T09:11:49;99836.09;;;12.05;100.00
32033;BME280;31720;52.638;9.216;2023-04-24T09:14:52;99823.06;;;12.14;100.00
32033;BME280;31720;52.638;9.216;2023-04-24T09:17:55;99835.84;;;12.08;100.00
32033;BME280;31720;52.638;9.216;2023-04-24T09:20:57;99846.72;;;12.03;100.00
32033;BME280;31720;52.638;9.216;2023-04-24T09:23:59;99838.44;;;11.97;100.00
32033;BME280;31720;52.638;9.216;2023-04-24T09:27:01;99835.69;;;11.98;100.00
32033;BME280;31720;52.638;9.216;2023-04-24T09:30:05;99846.91;;;11.89;100.00
32033;BME280;31720;52.638;9.216;2023-04-24T09:33:12;99834.47;;;11.91;100.00
32033;BME280;31720;52.638;9.216;2023-04-24T09:36:17;99837.53;;;11.85;100.00
32033;BME280;31720;52.638;9.216;2023-04-24T09:39:18;99824.94;;;11.77;100.00
32033;BME280;31720;52.638;9.216;2023-04-24T09:42:21;99843.94;;;11.81;100.00
32033;BME280;31720;52.638;9.216;2023-04-24T09:45:35;99841.31;;;11.81;100.00
32033;BME280;31720;52.638;9.216;2023-04-24T09:48:37;99839.00;;;11.89;100.00
32033;BME280;31720;52.638;9.216;2023-04-24T09:51:38;99840.56;;;11.91;100.00
32033;BME280;31720;52.638;9.216;2023-04-24T09:54:40;99842.47;;;12.13;100.00
32033;BME280;31720;52.638;9.216;2023-04-24T09:57:52;99856.75;;;12.22;100.00
32033;BME280;31720;52.638;9.216;2023-04-24T10:00:56;99840.81;;;12.24;100.00
32033;BME280;31720;52.638;9.216;2023-04-24T10:03:57;99843.13;;;12.39;100.00
32033;BME280;31720;52.638;9.216;2023-04-24T10:06:59;99862.59;;;12.61;100.00
32033;BME280;31720;52.638;9.216;2023-04-24T10:10:01;99850.69;;;12.44;100.00
32033;BME280;31720;52.638;9.216;2023-04-24T10:13:03;99852.25;;;12.35;100.00
32033;BME280;31720;52.638;9.216;2023-04-24T10:16:06;99846.97;;;12.35;100.00
32033;BME280;31720;52.638;9.216;2023-04-24T10:19:10;99859.97;;;12.26;100.00
32033;BME280;31720;52.638;9.216;2023-04-24T10:22:14;99861.16;;;12.22;100.00
32033;BME280;31720;52.638;9.216;2023-04-24T10:25:18;99861.84;;;12.12;100.00
32033;BME280;31720;52.638;9.216;2023-04-24T10:28:21;99871.34;;;11.91;100.00
32033;BME280;31720;52.638;9.216;2023-04-24T10:31:25;99849.53;;;11.76;100.00
32033;BME280;31720;52.638;9.216;2023-04-24T10:34:27;99863.31;;;11.80;100.00
32033;BME280;31720;52.638;9.216;2023-04-24T10:37:35;99847.53;;;11.80;100.00
32033;BME280;31720;52.638;9.216;2023-04-24T10:40:38;99855.34;;;11.81;100.00
32033;BME280;31720;52.638;9.216;2023-04-24T10:43:39;99856.72;;;11.74;100.00
32033;BME280;31720;52.638;9.216;2023-04-24T10:46:44;99861.53;;;11.80;100.00
32033;BME280;31720;52.638;9.216;2023-04-24T10:49:50;99863.81;;;11.61;100.00
32033;BME280;31720;52.638;9.216;2023-04-24T10:52:51;99855.88;;;11.74;100.00
32033;BME280;31720;52.638;9.216;2023-04-24T10:55:59;99869.03;;;11.86;100.00
32033;BME280;31720;52.638;9.216;2023-04-24T10:59:00;99867.03;;;11.90;100.00
32033;BME280;31720;52.638;9.216;2023-04-24T11:02:07;99864.94;;;12.06;100.00
32033;BME280;31720;52.638;9.216;2023-04-24T11:05:09;99869.25;;;12.07;100.00
32033;BME280;31720;52.638;9.216;2023-04-24T11:08:13;99866.19;;;12.13;100.00
32033;BME280;31720;52.638;9.216;2023-04-24T11:11:16;99873.25;;;12.13;100.00
32033;BME280;31720;52.638;9.216;2023-04-24T11:14:17;99877.25;;;12.06;100.00
32033;BME280;31720;52.638;9.216;2023-04-24T11:17:29;99875.34;;;12.08;100.00
32033;BME280;31720;52.638;9.216;2023-04-24T11:20:31;99867.78;;;12.03;100.00
32033;BME280;31720;52.638;9.216;2023-04-24T11:23:35;99882.03;;;12.01;100.00
32033;BME280;31720;52.638;9.216;2023-04-24T11:26:38;99867.25;;;11.87;100.00
32033;BME280;31720;52.638;9.216;2023-04-24T11:29:47;99878.00;;;11.71;100.00
32033;BME280;31720;52.638;9.216;2023-04-24T11:32:51;99880.88;;;11.68;100.00
32033;BME280;31720;52.638;9.216;2023-04-24T11:35:52;99871.69;;;11.74;100.00
32033;BME280;31720;52.638;9.216;2023-04-24T11:38:54;99878.16;;;11.81;100.00
32033;BME280;31720;52.638;9.216;2023-04-24T11:42:02;99896.31;;;11.73;100.00
32033;BME280;31720;52.638;9.216;2023-04-24T11:45:08;99890.13;;;11.61;100.00
32033;BME280;31720;52.638;9.216;2023-04-24T11:48:11;99885.63;;;11.63;100.00
32033;BME280;31720;52.638;9.216;2023-04-24T11:51:12;99883.25;;;11.71;100.00
32033;BME280;31720;52.638;9.216;2023-04-24T11:54:14;99895.91;;;11.66;100.00
32033;BME280;31720;52.638;9.216;2023-04-24T11:57:16;99890.97;;;11.61;100.00
32033;BME280;31720;52.638;9.216;2023-04-24T12:00:20;99895.22;;;11.51;100.00
32033;BME280;31720;52.638;9.216;2023-04-24T12:03:22;99909.75;;;11.44;100.00
32033;BME280;31720;52.638;9.216;2023-04-24T12:06:24;99913.84;;;11.35;100.00
32033;BME280;31720;52.638;9.216;2023-04-24T12:09:25;99931.97;;;11.27;100.00
32033;BME280;31720;52.638;9.216;2023-04-24T12:12:27;99915.38;;;11.27;100.00
32033;BME280;31720;52.638;9.216;2023-04-24T12:15:29;99925.88;;;11.27;100.00
32033;BME280;31720;52.638;9.216;2023-04-24T12:18:32;99917.88;;;11.28;100.00
32033;BME280;31720;52.638;9.216;2023-04-24T12:21:33;99923.13;;;11.28;100.00
32033;BME280;31720;52.638;9.216;2023-04-24T12:24:35;99925.88;;;11.01;100.00
32033;BME280;31720;52.638;9.216;2023-04-24T12:27:36;99924.31;;;10.86;100.00
32033;BME280;31720;52.638;9.216;2023-04-24T12:30:40;99932.28;;;10.84;100.00
32033;BME280;31720;52.638;9.216;2023-04-24T12:33:44;99939.13;;;11.00;100.00
32033;BME280;31720;52.638;9.216;2023-04-24T12:36:45;99933.34;;;10.95;100.00
32033;BME280;31720;52.638;9.216;2023-04-24T12:40:01;99940.13;;;10.72;100.00
32033;BME280;31720;52.638;9.216;2023-04-24T12:43:13;99939.72;;;10.65;100.00
32033;BME280;31720;52.638;9.216;2023-04-24T12:46:14;99951.91;;;10.66;100.00
32033;BME280;31720;52.638;9.216;2023-04-24T12:49:17;99948.75;;;10.61;100.00
32033;BME280;31720;52.638;9.216;2023-04-24T12:52:18;99944.63;;;10.57;100.00
32033;BME280;31720;52.638;9.216;2023-04-24T12:55:20;99977.59;;;10.48;100.00
32033;BME280;31720;52.638;9.216;2023-04-24T12:58:22;99971.22;;;10.11;100.00
32033;BME280;31720;52.638;9.216;2023-04-24T13:01:23;99976.22;;;10.01;100.00
32033;BME280;31720;52.638;9.216;2023-04-24T13:04:26;99986.81;;;9.85;100.00
32033;BME280;31720;52.638;9.216;2023-04-24T13:07:27;99979.06;;;9.70;100.00
32033;BME280;31720;52.638;9.216;2023-04-24T13:10:29;100002.41;;;9.60;100.00
32033;BME280;31720;52.638;9.216;2023-04-24T13:13:30;99995.28;;;9.62;100.00
32033;BME280;31720;52.638;9.216;2023-04-24T13:16:32;99998.84;;;9.47;100.00
32033;BME280;31720;52.638;9.216;2023-04-24T13:19:37;100006.81;;;9.45;100.00
32033;BME280;31720;52.638;9.216;2023-04-24T13:22:38;100015.78;;;9.27;100.00
32033;BME280;31720;52.638;9.216;2023-04-24T13:25:40;100035.97;;;9.10;100.00
32033;BME280;31720;52.638;9.216;2023-04-24T13:28:42;100027.03;;;8.99;100.00
32033;BME280;31720;52.638;9.216;2023-04-24T13:31:44;100042.13;;;8.95;100.00
32033;BME280;31720;52.638;9.216;2023-04-24T13:34:46;100056.19;;;8.78;100.00
32033;BME280;31720;52.638;9.216;2023-04-24T13:37:48;100053.03;;;8.72;100.00
32033;BME280;31720;52.638;9.216;2023-04-24T13:40:49;100061.72;;;8.88;100.00
32033;BME280;31720;52.638;9.216;2023-04-24T13:43:51;100062.34;;;8.77;100.00
32033;BME280;31720;52.638;9.216;2023-04-24T13:46:54;100084.41;;;8.73;100.00
32033;BME280;31720;52.638;9.216;2023-04-24T13:49:58;100090.06;;;8.66;100.00
32033;BME280;31720;52.638;9.216;2023-04-24T13:52:59;100098.19;;;8.61;100.00
32033;BME280;31720;52.638;9.216;2023-04-24T13:56:01;100107.81;;;8.60;100.00
32033;BME280;31720;52.638;9.216;2023-04-24T13:59:03;100107.16;;;8.41;100.00
32033;BME280;31720;52.638;9.216;2023-04-24T14:02:04;100109.91;;;8.22;100.00
32033;BME280;31720;52.638;9.216;2023-04-24T14:05:08;100108.19;;;8.21;100.00
32033;BME280;31720;52.638;9.216;2023-04-24T14:08:11;100117.06;;;8.19;100.00
32033;BME280;31720;52.638;9.216;2023-04-24T14:11:12;100114.44;;;8.34;100.00
32033;BME280;31720;52.638;9.216;2023-04-24T14:14:14;100122.41;;;8.33;100.00
32033;BME280;31720;52.638;9.216;2023-04-24T14:17:15;100122.97;;;8.22;100.00
32033;BME280;31720;52.638;9.216;2023-04-24T14:20:18;100126.84;;;8.15;100.00
32033;BME280;31720;52.638;9.216;2023-04-24T14:23:19;100136.63;;;8.11;100.00
32033;BME280;31720;52.638;9.216;2023-04-24T14:26:21;100144.91;;;8.20;100.00
32033;BME280;31720;52.638;9.216;2023-04-24T14:29:22;100151.78;;;8.22;100.00
32033;BME280;31720;52.638;9.216;2023-04-24T14:32:25;100147.03;;;8.29;100.00
32033;BME280;31720;52.638;9.216;2023-04-24T14:35:29;100164.38;;;8.31;100.00
32033;BME280;31720;52.638;9.216;2023-04-24T14:38:31;100157.59;;;8.27;100.00
32033;BME280;31720;52.638;9.216;2023-04-24T14:41:33;100167.25;;;8.27;100.00
32033;BME280;31720;52.638;9.216;2023-04-24T14:44:35;100163.00;;;8.24;100.00
32033;BME280;31720;52.638;9.216;2023-04-24T14:47:37;100156.53;;;8.31;100.00
32033;BME280;31720;52.638;9.216;2023-04-24T14:50:40;100168.00;;;8.29;100.00
32033;BME280;31720;52.638;9.216;2023-04-24T14:53:41;100173.97;;;8.31;100.00
32033;BME280;31720;52.638;9.216;2023-04-24T14:56:42;100175.16;;;8.25;100.00
32033;BME280;31720;52.638;9.216;2023-04-24T14:59:44;100181.59;;;8.35;100.00
32033;BME280;31720;52.638;9.216;2023-04-24T15:02:45;100187.00;;;8.32;100.00
32033;BME280;31720;52.638;9.216;2023-04-24T15:05:48;100185.84;;;8.38;100.00
32033;BME280;31720;52.638;9.216;2023-04-24T15:08:50;100179.69;;;8.39;100.00
32033;BME280;31720;52.638;9.216;2023-04-24T15:11:52;100185.38;;;8.47;100.00
32033;BME280;31720;52.638;9.216;2023-04-24T15:14:53;100190.94;;;8.57;100.00
32033;BME280;31720;52.638;9.216;2023-04-24T15:17:54;100185.88;;;8.54;100.00
32033;BME280;31720;52.638;9.216;2023-04-24T15:20:57;100189.66;;;8.48;100.00
32033;BME280;31720;52.638;9.216;2023-04-24T15:23:59;100197.13;;;8.56;100.00
32033;BME280;31720;52.638;9.216;2023-04-24T15:27:00;100196.72;;;8.63;100.00
32033;BME280;31720;52.638;9.216;2023-04-24T15:30:03;100191.88;;;8.56;100.00
32033;BME280;31720;52.638;9.216;2023-04-24T15:33:05;100192.56;;;8.59;100.00
32033;BME280;31720;52.638;9.216;2023-04-24T15:36:08;100195.25;;;8.58;100.00
32033;BME280;31720;52.638;9.216;2023-04-24T15:39:09;100198.22;;;8.52;100.00
32033;BME280;31720;52.638;9.216;2023-04-24T15:42:10;100201.16;;;8.46;100.00
32033;BME280;31720;52.638;9.216;2023-04-24T15:45:12;100200.97;;;8.49;100.00
32033;BME280;31720;52.638;9.216;2023-04-24T15:48:13;100206.16;;;8.50;100.00
32033;BME280;31720;52.638;9.216;2023-04-24T15:51:16;100209.22;;;8.58;100.00
32033;BME280;31720;52.638;9.216;2023-04-24T15:54:17;100214.66;;;8.54;100.00